Terminal Aerodrome Forecast
Issued by NWS

Home | Current Version | Previous Version | Graphics & Text | Print | Product List | Glossary On
Versions: 1 2 3 4 5 6 7 8 9 10 11 12 13 14 15 16 17
000
FTUS43 KICT 230520
TAFRSL
TAF
KRSL 230520Z 2306/2406 14012KT P6SM OVC020
     FM231000 15012KT 5SM BR OVC008
     FM231500 18018G26KT P6SM BKN020
     FM231900 18024G32KT P6SM SCT035=

USA.gov is the U.S. government's official web portal to all federal, state and local government web resources and services.